Time;durP1;ratioP1;P1;durP2;ratioP2;P2;SDS_P1;SDS_P2;PMS_P1;PMS_P2;Temp;Humidity;BMP_temperature;BMP_pressure;BME280_temperature;BME280_humidity;BME280_pressure;Samples;Min_cycle;Max_cycle;Signal;HPM_P1;HPM_P2
2022/10/26 00:00:09;;;;;;;35.13;20.80;;;;;;;9.92;100.00;98415.13;1730646;82;20885;-81
2022/10/26 00:02:37;;;;;;;34.48;22.87;;;;;;;9.93;100.00;98420.81;1731279;82;20961;-79
2022/10/26 00:05:04;;;;;;;35.73;21.85;;;;;;;9.89;100.00;98419.16;1732037;82;21173;-82
2022/10/26 00:07:30;;;;;;;33.30;20.72;;;;;;;9.89;100.00;98425.92;1731714;81;21023;-81
2022/10/26 00:09:56;;;;;;;44.83;24.37;;;;;;;9.86;100.00;98425.92;1732121;82;20952;-81
2022/10/26 00:12:22;;;;;;;41.65;24.18;;;;;;;9.87;100.00;98429.45;1731973;82;21095;-81
2022/10/26 00:14:48;;;;;;;40.65;23.22;;;;;;;9.88;100.00;98428.36;1731938;82;20912;-81
2022/10/26 00:17:13;;;;;;;37.95;21.27;;;;;;;9.87;100.00;98424.84;1731927;82;22010;-79
2022/10/26 00:19:40;;;;;;;37.23;21.37;;;;;;;9.85;100.00;98428.36;1731985;82;20936;-82
2022/10/26 00:22:06;;;;;;;34.27;22.00;;;;;;;9.87;100.00;98424.03;1731826;82;21453;-79
2022/10/26 00:24:31;;;;;;;35.48;21.50;;;;;;;9.83;100.00;98425.12;1731987;82;20896;-79
2022/10/26 00:26:57;;;;;;;34.20;20.50;;;;;;;9.85;100.00;98427.55;1731909;82;20949;-79
2022/10/26 00:29:23;;;;;;;37.17;18.75;;;;;;;9.83;100.00;98427.02;1752894;81;21097;-80
2022/10/26 00:31:49;;;;;;;33.40;18.70;;;;;;;9.77;100.00;98422.64;1762191;81;20876;-81
2022/10/26 00:34:15;;;;;;;34.10;21.57;;;;;;;9.76;100.00;98423.73;1761941;81;20888;-80
2022/10/26 00:36:41;;;;;;;32.42;18.35;;;;;;;9.71;100.00;98428.56;1762113;81;20900;-78
2022/10/26 00:39:09;;;;;;;29.60;18.12;;;;;;;9.71;100.00;98429.11;1762169;81;20912;-81
2022/10/26 00:41:35;;;;;;;25.95;16.02;;;;;;;9.68;100.00;98425.05;1732147;81;21079;-79
2022/10/26 00:44:40;;;;;;;27.15;17.05;;;;;;;9.69;100.00;98427.20;1746890;81;20948;-82
2022/10/26 00:47:20;;;;;;;25.82;16.27;;;;;;;9.68;100.00;98425.58;1731897;82;21096;-82
2022/10/26 00:49:47;;;;;;;30.43;19.27;;;;;;;9.66;100.00;98427.20;1731713;82;21453;-81
2022/10/26 00:52:13;;;;;;;28.30;16.00;;;;;;;9.65;100.00;98421.49;1731952;81;21017;-79
2022/10/26 00:54:39;;;;;;;30.12;15.78;;;;;;;9.65;100.00;98426.91;1732166;82;21488;-79
2022/10/26 00:57:05;;;;;;;23.62;15.43;;;;;;;9.67;100.00;98416.66;1702856;82;20893;-79
2022/10/26 00:59:31;;;;;;;25.10;16.85;;;;;;;9.72;100.00;98436.95;1732050;82;21047;-79
2022/10/26 01:17:50;;;;;;;30.17;16.12;;;;;;;9.76;100.00;98438.07;1734089;81;21481;-79
2022/10/26 01:21:00;;;;;;;28.60;16.62;;;;;;;9.77;100.00;98441.59;1735953;82;21520;-81
2022/10/26 01:23:55;;;;;;;25.50;15.35;;;;;;;9.76;100.00;98439.42;1723330;82;21902;-79
2022/10/26 01:26:45;;;;;;;28.52;16.20;;;;;;;9.71;100.00;98436.69;1723706;83;21002;-79
2022/10/26 01:29:29;;;;;;;29.25;15.08;;;;;;;9.68;100.00;98438.58;1694606;83;21433;-79
2022/10/26 01:32:19;;;;;;;40.55;17.23;;;;;;;9.61;100.00;98427.98;1768396;80;21457;-81
2022/10/26 01:35:13;;;;;;;28.05;14.68;;;;;;;9.61;100.00;98432.58;1745681;80;20992;-82
2022/10/26 01:37:51;;;;;;;25.05;15.38;;;;;;;9.59;100.00;98436.09;1777403;80;21105;-81
2022/10/26 01:40:24;;;;;;;29.95;16.57;;;;;;;9.58;100.00;98435.83;1776366;80;20976;-82
2022/10/26 01:42:52;;;;;;;28.77;17.80;;;;;;;9.59;100.00;98436.09;1763870;80;21013;-80
2022/10/26 01:45:18;;;;;;;32.42;17.60;;;;;;;9.60;100.00;98440.42;1711623;82;21056;-81
2022/10/26 01:47:46;;;;;;;22.25;16.07;;;;;;;9.61;100.00;98439.34;1715806;82;21059;-79
2022/10/26 01:50:12;;;;;;;29.80;17.85;;;;;;;9.62;100.00;98440.97;1715915;83;21895;-82
2022/10/26 01:52:39;;;;;;;32.78;17.40;;;;;;;9.64;100.00;98436.10;1707783;82;21502;-80
2022/10/26 01:55:11;;;;;;;33.48;20.80;;;;;;;9.67;100.00;98437.48;1722208;80;21066;-79
2022/10/26 01:57:36;;;;;;;39.75;20.43;;;;;;;9.63;100.00;98435.83;1692781;82;21021;-82
2022/10/26 02:00:10;;;;;;;28.90;17.20;;;;;;;9.63;100.00;98431.77;1667807;84;20905;-79
2022/10/26 02:02:53;;;;;;;29.48;15.10;;;;;;;9.57;100.00;98435.02;1695663;84;21153;-81
2022/10/26 02:05:51;;;;;;;31.48;15.75;;;;;;;9.54;100.00;98426.59;1695981;84;21480;-79
2022/10/26 02:08:48;;;;;;;31.05;18.17;;;;;;;9.50;100.00;98431.72;1666438;85;21082;-79
2022/10/26 02:11:41;;;;;;;37.15;19.85;;;;;;;9.52;100.00;98425.50;1652687;85;20974;-81
2022/10/26 02:14:27;;;;;;;32.88;20.97;;;;;;;9.51;100.00;98425.77;1696838;82;21549;-82
2022/10/26 02:16:59;;;;;;;31.87;18.27;;;;;;;9.53;100.00;98429.83;1706348;83;21149;-79
2022/10/26 02:19:37;;;;;;;50.52;26.25;;;;;;;9.51;100.00;98426.58;1705685;83;21439;-79
2022/10/26 02:22:29;;;;;;;44.73;22.73;;;;;;;9.53;100.00;98427.67;1730888;82;20994;-79
2022/10/26 02:24:55;;;;;;;38.95;20.32;;;;;;;9.51;100.00;98422.53;1711279;82;20926;-79
2022/10/26 02:27:25;;;;;;;30.57;18.48;;;;;;;9.54;100.00;98429.30;1707735;84;20993;-81
2022/10/26 02:29:52;;;;;;;43.95;25.10;;;;;;;9.56;100.00;98431.19;1676792;84;21100;-79
2022/10/26 02:32:18;;;;;;;44.15;21.97;;;;;;;9.58;100.00;98429.06;1678167;85;21052;-79
2022/10/26 02:34:45;;;;;;;34.85;21.12;;;;;;;9.56;100.00;98428.48;1678893;84;21314;-82
2022/10/26 02:37:11;;;;;;;38.08;19.32;;;;;;;9.58;100.00;98437.18;1678816;85;21085;-81
2022/10/26 02:39:37;;;;;;;38.42;22.22;;;;;;;9.61;100.00;98432.05;1678775;85;21505;-79
2022/10/26 02:42:04;;;;;;;33.80;18.90;;;;;;;9.63;100.00;98433.13;1678815;85;21166;-79
2022/10/26 02:44:43;;;;;;;36.55;22.27;;;;;;;9.63;100.00;98429.61;1698629;84;21006;-82
2022/10/26 02:47:10;;;;;;;42.00;23.42;;;;;;;9.61;100.00;98431.23;1707000;84;33673;-79
2022/10/26 02:49:36;;;;;;;31.62;20.62;;;;;;;9.59;100.00;98438.80;1707437;84;20958;-81
2022/10/26 02:52:24;;;;;;;33.78;20.32;;;;;;;9.58;100.00;98433.12;1707124;84;21029;-79
2022/10/26 02:54:55;;;;;;;35.48;19.82;;;;;;;9.56;100.00;98436.60;1707370;83;21127;-82
2022/10/26 02:57:33;;;;;;;32.10;18.65;;;;;;;9.45;100.00;98433.03;1706927;83;21128;-81
2022/10/26 02:59:59;;;;;;;29.77;19.10;;;;;;;9.37;100.00;98436.23;1707267;83;21013;-79
2022/10/26 03:02:24;;;;;;;33.73;20.80;;;;;;;9.27;100.00;98441.05;1707231;84;20977;-79
2022/10/26 03:04:50;;;;;;;37.13;20.95;;;;;;;9.18;100.00;98443.15;1707733;84;20902;-80
2022/10/26 03:07:23;;;;;;;33.18;18.80;;;;;;;9.12;100.00;98443.64;1708090;84;21064;-81
2022/10/26 03:09:49;;;;;;;30.48;19.27;;;;;;;9.08;100.00;98447.14;1707774;83;21002;-79
2022/10/26 03:12:15;;;;;;;25.90;15.85;;;;;;;9.04;100.00;98449.53;1707541;84;20930;-79
2022/10/26 03:14:40;;;;;;;31.05;15.50;;;;;;;9.02;100.00;98447.63;1707224;84;21373;-82
2022/10/26 03:17:07;;;;;;;28.15;16.25;;;;;;;8.97;100.00;98450.28;1707005;84;20910;-79
2022/10/26 03:19:33;;;;;;;20.02;13.60;;;;;;;8.92;100.00;98441.61;1706825;83;21361;-81
2022/10/26 03:21:58;;;;;;;30.32;14.93;;;;;;;8.90;100.00;98450.52;1706611;84;21616;-78
2022/10/26 03:24:24;;;;;;;29.67;18.40;;;;;;;8.87;100.00;98455.61;1705650;84;20914;-81
2022/10/26 03:26:50;;;;;;;31.10;16.87;;;;;;;8.80;100.00;98449.06;1705687;84;21214;-79
2022/10/26 03:29:16;;;;;;;30.25;17.52;;;;;;;8.77;100.00;98448.23;1705799;84;20898;-82
2022/10/26 03:31:42;;;;;;;28.52;16.95;;;;;;;8.71;100.00;98451.95;1706920;84;21236;-81
2022/10/26 03:34:08;;;;;;;32.93;17.67;;;;;;;8.65;100.00;98451.66;1703358;84;20882;-78
2022/10/26 03:36:34;;;;;;;26.35;16.50;;;;;;;8.55;100.00;98444.28;1704094;84;21016;-81
2022/10/26 03:39:00;;;;;;;25.68;17.87;;;;;;;8.46;100.00;98454.73;1706361;83;20934;-81
2022/10/26 03:41:26;;;;;;;30.52;18.12;;;;;;;8.41;100.00;98453.31;1707475;84;20906;-81
2022/10/26 03:43:52;;;;;;;31.27;18.12;;;;;;;8.35;100.00;98458.91;1695829;84;20999;-79
2022/10/26 03:46:17;;;;;;;36.15;19.27;;;;;;;8.28;100.00;98455.56;1679757;85;21594;-82
2022/10/26 03:48:43;;;;;;;38.10;20.75;;;;;;;8.24;100.00;98463.37;1679660;85;20979;-81
2022/10/26 03:51:09;;;;;;;31.93;17.07;;;;;;;8.18;100.00;98461.67;1679835;85;20943;-81
2022/10/26 03:53:35;;;;;;;25.02;15.28;;;;;;;8.13;100.00;98463.80;1679576;85;20923;-79
2022/10/26 03:56:01;;;;;;;34.75;18.05;;;;;;;8.07;100.00;98468.84;1679837;85;20935;-79
2022/10/26 03:58:27;;;;;;;33.33;17.77;;;;;;;8.03;100.00;98470.94;1679582;85;20892;-81
2022/10/26 04:00:53;;;;;;;35.65;20.70;;;;;;;8.02;100.00;98472.82;1679827;85;20951;-79
2022/10/26 04:03:18;;;;;;;29.67;19.35;;;;;;;7.99;100.00;98463.89;1679732;85;20892;-79
2022/10/26 04:05:45;;;;;;;29.72;19.05;;;;;;;7.94;100.00;98462.47;1679956;85;21467;-79
2022/10/26 04:08:10;;;;;;;28.50;17.05;;;;;;;7.90;100.00;98466.75;1679718;85;21034;-81
2022/10/26 04:10:36;;;;;;;24.72;16.87;;;;;;;7.84;100.00;98461.00;1679756;85;20955;-78
2022/10/26 04:13:02;;;;;;;23.75;16.20;;;;;;;7.78;100.00;98462.03;1679630;85;20979;-79
2022/10/26 04:15:28;;;;;;;26.07;16.27;;;;;;;7.69;100.00;98458.95;1679572;85;20928;-82
2022/10/26 04:18:00;;;;;;;31.07;17.07;;;;;;;7.64;100.00;98461.03;1679694;85;20908;-79
2022/10/26 04:20:26;;;;;;;26.35;16.00;;;;;;;7.59;100.00;98456.91;1679607;85;21318;-82
2022/10/26 04:23:00;;;;;;;30.57;15.13;;;;;;;7.54;100.00;98456.86;1679617;85;20995;-81
2022/10/26 04:25:26;;;;;;;25.00;15.63;;;;;;;7.49;100.00;98462.17;1679851;85;21079;-79
2022/10/26 04:27:53;;;;;;;24.98;14.25;;;;;;;7.41;100.00;98465.29;1679487;85;21625;-81
2022/10/26 04:30:19;;;;;;;21.23;14.65;;;;;;;7.37;100.00;98470.09;1679741;85;21023;-79
2022/10/26 04:32:45;;;;;;;23.20;13.80;;;;;;;7.29;100.00;98465.94;1679757;85;21424;-79
2022/10/26 04:35:11;;;;;;;29.20;15.28;;;;;;;7.23;100.00;98466.38;1679517;85;20991;-81
2022/10/26 04:37:36;;;;;;;28.27;17.60;;;;;;;7.20;100.00;98470.12;1679769;85;20959;-81
2022/10/26 04:40:03;;;;;;;31.97;19.25;;;;;;;7.20;100.00;98475.52;1679762;85;20873;-79
2022/10/26 04:42:32;;;;;;;36.30;21.82;;;;;;;7.15;100.00;98465.98;1702612;84;21001;-79
2022/10/26 04:44:57;;;;;;;35.23;18.85;;;;;;;7.10;100.00;98465.92;1707453;84;21153;-81
2022/10/26 04:47:22;;;;;;;33.83;16.62;;;;;;;7.02;100.00;98472.01;1708024;84;20934;-78
2022/10/26 04:49:48;;;;;;;25.77;15.65;;;;;;;6.99;100.00;98463.58;1708087;84;20894;-79
2022/10/26 04:52:14;;;;;;;30.95;16.15;;;;;;;6.96;100.00;98470.81;1708087;84;20986;-79
2022/10/26 04:54:40;;;;;;;28.47;16.48;;;;;;;6.92;100.00;98473.20;1708232;84;20871;-81
2022/10/26 04:57:06;;;;;;;31.82;16.42;;;;;;;6.85;100.00;98480.62;1707940;84;21845;-79
2022/10/26 04:59:32;;;;;;;27.37;13.00;;;;;;;6.78;100.00;98475.39;1695668;84;20922;-79
2022/10/26 05:01:58;;;;;;;31.02;13.58;;;;;;;6.75;100.00;98471.84;1694943;82;21013;-81
2022/10/26 05:04:23;;;;;;;22.17;11.05;;;;;;;6.73;100.00;98475.82;1721662;82;20879;-79
2022/10/26 05:06:52;;;;;;;26.45;12.30;;;;;;;6.67;100.00;98476.81;1720067;82;21052;-79
2022/10/26 05:09:18;;;;;;;25.62;13.03;;;;;;;6.60;100.00;98481.53;1721189;81;22054;-79
2022/10/26 05:11:44;;;;;;;22.65;11.40;;;;;;;6.56;100.00;98478.48;1723504;82;20943;-79
2022/10/26 05:14:11;;;;;;;28.02;12.23;;;;;;;6.49;100.00;98478.67;1706049;82;21036;-78
2022/10/26 05:16:38;;;;;;;23.52;12.15;;;;;;;6.45;100.00;98482.07;1692553;84;21434;-81
2022/10/26 05:19:03;;;;;;;23.40;12.65;;;;;;;6.39;100.00;98480.33;1693005;84;20986;-81
2022/10/26 05:21:30;;;;;;;20.82;12.50;;;;;;;6.38;100.00;98483.56;1702799;82;21100;-81
2022/10/26 05:23:56;;;;;;;22.35;12.55;;;;;;;6.33;100.00;98481.32;1705375;82;20998;-81
2022/10/26 05:26:22;;;;;;;25.20;14.28;;;;;;;6.32;100.00;98485.86;1692429;84;20862;-79
2022/10/26 05:28:48;;;;;;;25.90;13.05;;;;;;;6.34;100.00;98483.77;1694585;84;20983;-81
2022/10/26 05:31:14;;;;;;;20.48;12.98;;;;;;;6.40;100.00;98483.31;1672020;85;21434;-82
2022/10/26 05:33:40;;;;;;;26.62;13.72;;;;;;;6.46;100.00;98488.55;1694614;82;21600;-81
2022/10/26 05:36:07;;;;;;;30.68;14.93;;;;;;;6.53;100.00;98489.75;1704287;84;21636;-82
2022/10/26 05:38:32;;;;;;;22.48;12.82;;;;;;;6.63;100.00;98487.77;1707970;84;20986;-79
2022/10/26 05:41:00;;;;;;;28.02;13.58;;;;;;;6.63;100.00;98487.23;1707046;84;20929;-81
2022/10/26 05:43:26;;;;;;;28.92;13.45;;;;;;;6.64;100.00;98504.21;1718965;81;20997;-81
2022/10/26 05:45:53;;;;;;;43.25;20.30;;;;;;;6.63;100.00;98499.89;1720086;81;21144;-79
2022/10/26 05:48:19;;;;;;;39.25;18.98;;;;;;;6.62;100.00;98504.98;1728291;82;21067;-81
2022/10/26 05:50:45;;;;;;;42.20;20.48;;;;;;;6.59;100.00;98504.14;1719738;81;21053;-80
2022/10/26 05:53:11;;;;;;;35.23;19.00;;;;;;;6.56;100.00;98507.30;1715133;82;20874;-81
2022/10/26 05:55:38;;;;;;;42.25;19.73;;;;;;;6.50;100.00;98508.56;1674302;85;20894;-81
2022/10/26 05:58:13;;;;;;;57.85;22.13;;;;;;;6.46;100.00;98511.97;1708043;83;21322;-81
2022/10/26 06:01:18;;;;;;;58.40;23.50;;;;;;;6.45;100.00;98508.46;1700122;82;21005;-79
2022/10/26 06:04:01;;;;;;;41.55;19.32;;;;;;;6.46;100.00;98513.31;1679565;84;21029;-81
2022/10/26 06:06:35;;;;;;;35.15;18.55;;;;;;;6.48;100.00;98515.23;1686363;84;21386;-81
2022/10/26 06:09:01;;;;;;;37.30;15.30;;;;;;;6.50;100.00;98514.48;1707872;83;20978;-81
2022/10/26 06:11:27;;;;;;;37.03;16.77;;;;;;;6.54;100.00;98518.84;1712388;82;21058;-79
2022/10/26 06:13:59;;;;;;;30.48;15.55;;;;;;;6.53;100.00;98522.06;1701379;83;21412;-81
2022/10/26 06:16:36;;;;;;;24.97;12.20;;;;;;;6.56;100.00;98521.57;1704949;83;21052;-79
2022/10/26 06:19:39;;;;;;;26.55;11.73;;;;;;;6.57;100.00;98523.73;1713285;82;21045;-79
2022/10/26 06:22:35;;;;;;;20.95;10.70;;;;;;;6.59;100.00;98531.88;1717300;82;21553;-81
2022/10/26 06:25:48;;;;;;;19.77;11.80;;;;;;;6.60;100.00;98535.39;1707986;82;21173;-81
2022/10/26 06:28:37;;;;;;;28.75;13.60;;;;;;;6.65;100.00;98529.55;1704404;82;21010;-77
2022/10/26 06:31:03;;;;;;;19.50;11.55;;;;;;;6.74;100.00;98532.13;1663996;84;20991;-82
2022/10/26 06:33:28;;;;;;;25.37;13.38;;;;;;;6.81;100.00;98537.91;1727241;80;20890;-80
2022/10/26 06:36:05;;;;;;;29.55;13.48;;;;;;;6.85;100.00;98538.54;1738844;81;20917;-80
2022/10/26 06:38:33;;;;;;;19.20;12.90;;;;;;;6.92;100.00;98537.02;1727260;81;21722;-81
2022/10/26 06:40:59;;;;;;;24.50;15.80;;;;;;;6.96;100.00;98545.73;1744189;80;21091;-79
2022/10/26 06:43:28;;;;;;;21.93;12.53;;;;;;;6.94;100.00;98547.05;1724965;80;21076;-81
2022/10/26 06:46:05;;;;;;;23.80;11.75;;;;;;;6.95;100.00;98547.33;1719365;82;21028;-81
2022/10/26 06:48:39;;;;;;;22.25;11.97;;;;;;;7.00;100.00;98550.91;1730752;80;21027;-81
2022/10/26 06:51:06;;;;;;;21.05;11.80;;;;;;;7.05;100.00;98555.05;1736169;80;21178;-81
2022/10/26 06:53:37;;;;;;;15.23;9.78;;;;;;;7.16;100.00;98556.02;1691280;80;21151;-83
2022/10/26 06:56:03;;;;;;;14.60;9.88;;;;;;;7.23;100.00;98553.17;1709036;82;21118;-82
2022/10/26 06:58:34;;;;;;;16.05;10.28;;;;;;;7.30;100.00;98555.18;1722257;81;21048;-84
2022/10/26 07:01:00;;;;;;;16.85;10.63;;;;;;;7.37;100.00;98560.42;1721525;81;21032;-82
2022/10/26 07:03:26;;;;;;;169.55;97.97;;;;;;;7.47;100.00;98552.48;1706780;82;22231;-81
2022/10/26 07:05:52;;;;;;;18.30;11.97;;;;;;;7.55;100.00;98558.27;1698763;83;20957;-81
2022/10/26 07:08:18;;;;;;;15.10;10.98;;;;;;;7.68;100.00;98555.75;1709632;82;20960;-80
2022/10/26 07:10:44;;;;;;;18.85;11.85;;;;;;;7.75;100.00;98560.98;1708928;83;21477;-81
2022/10/26 07:13:10;;;;;;;23.07;12.85;;;;;;;7.80;100.00;98565.92;1648254;83;20967;-83
2022/10/26 07:15:37;;;;;;;31.10;16.95;;;;;;;7.85;100.00;98556.53;1708619;81;21078;-80
2022/10/26 07:18:07;;;;;;;27.82;16.15;;;;;;;7.92;100.00;98553.13;1709677;81;21090;-85
2022/10/26 07:20:39;;;;;;;36.30;19.42;;;;;;;7.98;100.00;98564.81;1715300;81;21198;-82
2022/10/26 07:23:06;;;;;;;31.95;18.87;;;;;;;8.06;100.00;98564.92;1730736;80;21065;-82
2022/10/26 07:25:32;;;;;;;31.97;17.65;;;;;;;8.12;100.00;98562.05;1722488;81;20946;-83
2022/10/26 07:27:58;;;;;;;33.78;20.02;;;;;;;8.20;100.00;98553.52;1723048;81;20973;-83
2022/10/26 07:30:25;;;;;;;22.27;13.93;;;;;;;8.29;100.00;98562.48;1714247;80;20961;-82
2022/10/26 07:33:03;;;;;;;30.10;16.48;;;;;;;8.35;100.00;98565.58;1663597;84;21423;-79
2022/10/26 07:35:29;;;;;;;29.72;17.52;;;;;;;8.37;100.00;98553.45;1707594;82;22114;-82
2022/10/26 07:37:57;;;;;;;26.87;16.23;;;;;;;8.53;100.00;98572.00;1698046;82;21005;-81
2022/10/26 07:40:23;;;;;;;26.48;14.58;;;;;;;8.60;100.00;98560.47;1666002;84;21971;-83
2022/10/26 07:42:50;;;;;;;24.00;13.95;;;;;;;8.69;100.00;98560.30;1723562;80;21080;-82
2022/10/26 07:45:15;;;;;;;22.02;11.95;;;;;;;8.79;100.00;98555.52;1726163;82;21124;-83
2022/10/26 07:47:41;;;;;;;17.17;11.63;;;;;;;8.89;100.00;98565.64;1692349;82;20986;-83
2022/10/26 07:50:10;;;;;;;18.45;12.82;;;;;;;8.96;100.00;98560.28;1692569;82;20925;-82
2022/10/26 07:52:37;;;;;;;24.30;13.45;;;;;;;9.05;100.00;98556.58;1692847;82;21056;-82
2022/10/26 07:55:04;;;;;;;20.25;13.48;;;;;;;9.13;100.00;98550.70;1698965;82;21048;-83
2022/10/26 07:57:30;;;;;;;21.17;12.63;;;;;;;9.24;100.00;98548.39;1730008;81;21793;-83
2022/10/26 07:59:56;;;;;;;21.12;13.03;;;;;;;9.36;100.00;98543.33;1737507;81;20843;-82
2022/10/26 08:02:23;;;;;;;19.50;12.28;;;;;;;9.45;100.00;98541.23;1690800;81;20974;-83
2022/10/26 08:04:49;;;;;;;17.67;12.25;;;;;;;9.58;100.00;98539.98;1699881;82;21089;-83
2022/10/26 08:07:15;;;;;;;21.68;12.25;;;;;;;9.68;100.00;98538.70;1701237;82;21435;-81
2022/10/26 08:09:42;;;;;;;18.20;10.48;;;;;;;9.80;100.00;98540.66;1692693;82;20878;-83
2022/10/26 08:12:07;;;;;;;21.52;11.45;;;;;;;9.91;100.00;98544.22;1703486;82;21537;-83
2022/10/26 08:14:33;;;;;;;15.43;8.98;;;;;;;10.01;100.00;98540.24;1722428;82;20926;-83
2022/10/26 08:16:59;;;;;;;21.93;9.90;;;;;;;10.10;100.00;98531.89;1690553;84;21303;-81
2022/10/26 08:19:25;;;;;;;15.05;10.63;;;;;;;10.21;100.00;98538.16;1680292;84;21420;-81
2022/10/26 08:21:51;;;;;;;16.27;10.32;;;;;;;10.35;100.00;98539.34;1659161;85;20907;-83
2022/10/26 08:24:17;;;;;;;19.82;8.75;;;;;;;10.47;100.00;98534.22;1692644;82;20888;-83
2022/10/26 08:26:43;;;;;;;16.70;10.43;;;;;;;10.58;100.00;98535.87;1695126;82;20978;-80
2022/10/26 08:29:08;;;;;;;17.20;9.93;;;;;;;10.70;100.00;98533.75;1693808;82;22606;-81
2022/10/26 08:31:34;;;;;;;15.58;9.55;;;;;;;10.88;100.00;98532.42;1693197;82;20977;-84
2022/10/26 08:34:00;;;;;;;17.55;9.15;;;;;;;11.04;100.00;98531.91;1692947;82;21616;-80
2022/10/26 08:36:27;;;;;;;15.93;9.38;;;;;;;11.21;100.00;98533.81;1689405;82;21047;-81
2022/10/26 08:38:52;;;;;;;26.85;8.75;;;;;;;11.38;100.00;98532.98;1701523;82;21048;-82
2022/10/26 08:41:23;;;;;;;27.00;8.45;;;;;;;11.56;100.00;98524.83;1704905;82;21290;-80
2022/10/26 08:43:53;;;;;;;11.20;6.85;;;;;;;11.76;100.00;98528.05;1708773;82;21002;-82
2022/10/26 08:46:24;;;;;;;12.58;7.40;;;;;;;11.95;100.00;98519.60;1700884;82;21214;-81
2022/10/26 08:48:55;;;;;;;9.18;5.87;;;;;;;12.10;100.00;98518.20;1692016;82;21042;-81
2022/10/26 08:51:26;;;;;;;15.20;7.22;;;;;;;12.28;100.00;98515.95;1706183;82;21060;-81
2022/10/26 08:54:06;;;;;;;12.43;6.85;;;;;;;12.46;100.00;98510.43;1717335;82;21136;-81
2022/10/26 08:56:38;;;;;;;9.55;6.85;;;;;;;12.61;100.00;98517.15;1722085;82;21100;-81
2022/10/26 08:59:20;;;;;;;14.73;7.90;;;;;;;12.75;100.00;98512.73;1710223;82;21065;-82
2022/10/26 09:01:46;;;;;;;10.10;6.08;;;;;;;12.91;100.00;98510.17;1696514;82;21109;-81
2022/10/26 09:04:12;;;;;;;13.40;5.80;;;;;;;13.04;100.00;98499.73;1714627;82;21061;-81
2022/10/26 09:07:01;;;;;;;8.83;5.28;;;;;;;13.14;100.00;98496.38;1725432;82;21929;-80
2022/10/26 09:09:57;;;;;;;10.38;5.90;;;;;;;13.28;100.00;98501.20;1693059;82;21474;-81
2022/10/26 09:12:49;;;;;;;8.68;4.85;;;;;;;13.39;100.00;98505.45;1697388;82;21120;-82
2022/10/26 09:15:36;;;;;;;9.43;5.10;;;;;;;13.47;100.00;98507.56;1686933;84;20941;-81
2022/10/26 09:18:17;;;;;;;6.33;4.10;;;;;;;13.57;100.00;98512.09;1686514;82;21060;-82
2022/10/26 09:21:08;;;;;;;8.70;4.12;;;;;;;13.66;100.00;98508.45;1707262;82;21866;-81
2022/10/26 09:24:01;;;;;;;7.70;4.33;;;;;;;13.84;100.00;98506.91;1691250;82;21462;-81
2022/10/26 09:26:34;;;;;;;6.83;4.40;;;;;;;13.96;100.00;98505.97;1691712;82;21022;-79
2022/10/26 09:29:06;;;;;;;5.05;3.27;;;;;;;14.03;100.00;98509.16;1698587;82;21117;-79
2022/10/26 09:31:36;;;;;;;11.78;5.78;;;;;;;14.13;100.00;98509.59;1694213;84;21077;-79
2022/10/26 09:34:02;;;;;;;7.67;4.60;;;;;;;14.22;100.00;98514.66;1699930;82;21152;-79
2022/10/26 09:36:29;;;;;;;8.03;4.67;;;;;;;14.33;100.00;98512.05;1641258;82;21183;-79
2022/10/26 09:39:18;;;;;;;9.05;4.08;;;;;;;14.44;100.00;98515.48;1698670;82;21140;-79
2022/10/26 09:41:57;;;;;;;7.35;3.72;;;;;;;14.54;100.00;98514.56;1686752;84;21133;-81
2022/10/26 09:44:28;;;;;;;8.40;4.12;;;;;;;14.63;100.00;98514.98;1701639;84;21468;-81
2022/10/26 09:47:06;;;;;;;7.17;3.58;;;;;;;14.71;100.00;98509.42;1692555;82;21505;-81
2022/10/26 09:49:44;;;;;;;6.12;3.55;;;;;;;14.81;98.43;98513.91;1705574;82;21086;-82
2022/10/26 09:52:10;;;;;;;11.00;3.23;;;;;;;14.90;100.00;98506.68;1681255;82;21029;-82
2022/10/26 09:54:36;;;;;;;8.13;3.52;;;;;;;15.06;100.00;98510.80;1702832;82;21152;-82
2022/10/26 09:57:01;;;;;;;7.53;3.08;;;;;;;15.17;99.48;98511.44;1696063;84;21652;-81
2022/10/26 09:59:27;;;;;;;6.75;3.60;;;;;;;15.24;97.74;98509.95;1709902;82;21141;-82
2022/10/26 10:01:54;;;;;;;9.98;2.77;;;;;;;15.34;96.84;98506.24;1699486;82;21021;-82
2022/10/26 10:04:24;;;;;;;4.37;2.62;;;;;;;15.45;94.10;98514.51;1701028;82;20918;-82
2022/10/26 10:07:04;;;;;;;4.87;2.40;;;;;;;15.55;95.15;98510.78;1690467;84;21034;-82
2022/10/26 10:09:29;;;;;;;6.90;2.17;;;;;;;15.62;95.89;98511.24;1691008;83;21056;-82
2022/10/26 10:12:01;;;;;;;5.70;2.42;;;;;;;15.67;93.17;98509.80;1697304;82;21486;-82
2022/10/26 10:14:38;;;;;;;5.95;2.47;;;;;;;15.77;94.84;98508.80;1677950;82;21042;-81
2022/10/26 10:17:07;;;;;;;5.15;2.42;;;;;;;15.84;91.72;98507.05;1708882;82;21217;-81
2022/10/26 10:19:35;;;;;;;173.35;86.90;;;;;;;15.88;94.17;98497.92;1718517;82;21031;-82
2022/10/26 10:22:21;;;;;;;12.80;8.30;;;;;;;15.92;91.16;98500.31;1692834;84;21411;-81
2022/10/26 10:24:57;;;;;;;6.67;2.70;;;;;;;16.01;87.26;98497.13;1691497;82;21061;-81
2022/10/26 10:27:23;;;;;;;8.05;2.72;;;;;;;16.13;88.25;98497.17;1690307;82;21074;-81
2022/10/26 10:29:57;;;;;;;3.70;1.62;;;;;;;16.23;87.17;98501.06;1678689;82;21525;-81
2022/10/26 10:32:26;;;;;;;4.35;2.33;;;;;;;16.33;87.04;98497.58;1691659;82;21577;-82
2022/10/26 10:34:56;;;;;;;6.08;1.90;;;;;;;16.51;85.80;98499.94;1693283;82;21514;-81
2022/10/26 10:37:43;;;;;;;7.33;2.25;;;;;;;16.63;81.07;98500.77;1705622;82;21140;-82
2022/10/26 10:40:19;;;;;;;6.20;1.87;;;;;;;16.75;85.44;98496.98;1696886;82;21005;-82
2022/10/26 10:42:46;;;;;;;3.42;2.15;;;;;;;16.84;87.31;98495.12;1688184;83;21045;-81
2022/10/26 10:45:24;;;;;;;7.40;1.82;;;;;;;16.91;80.25;98495.48;1695760;82;21022;-81
2022/10/26 10:48:06;;;;;;;5.77;2.20;;;;;;;17.04;77.83;98495.76;1699018;83;21057;-81
2022/10/26 10:50:32;;;;;;;4.08;1.50;;;;;;;17.17;81.93;98488.84;1683167;82;22076;-81
2022/10/26 10:53:18;;;;;;;5.67;1.60;;;;;;;17.26;82.45;98494.41;1729227;81;20958;-81
2022/10/26 10:55:49;;;;;;;3.17;1.50;;;;;;;17.37;77.83;98496.32;1673005;83;20958;-81
2022/10/26 10:58:36;;;;;;;4.33;1.42;;;;;;;17.56;81.84;98492.00;1673949;82;21081;-82
2022/10/26 11:01:02;;;;;;;3.45;1.37;;;;;;;17.49;72.75;98493.80;1690784;82;21060;-82
2022/10/26 11:03:50;;;;;;;3.62;1.60;;;;;;;17.41;74.06;98495.37;1696551;82;21029;-81
2022/10/26 11:06:22;;;;;;;5.17;2.30;;;;;;;17.58;77.59;98478.22;1699086;84;21085;-82
2022/10/26 11:09:07;;;;;;;6.10;1.92;;;;;;;17.58;77.59;98478.22;1697215;83;21118;-81
2022/10/26 11:11:38;;;;;;;8.28;2.62;;;;;;;17.65;75.44;98488.74;1701719;82;21014;-81
2022/10/26 11:14:29;;;;;;;7.53;2.20;;;;;;;17.72;75.16;98495.98;1700437;84;21050;-82
2022/10/26 11:17:00;;;;;;;5.75;2.42;;;;;;;17.70;75.50;98500.42;1703172;83;21033;-81
2022/10/26 11:19:48;;;;;;;6.60;2.83;;;;;;;17.68;74.51;98498.50;1682506;84;21232;-82
2022/10/26 11:22:21;;;;;;;9.18;3.02;;;;;;;17.72;76.19;98493.25;1709423;82;21041;-81
2022/10/26 11:24:58;;;;;;;5.75;2.20;;;;;;;17.63;74.66;98494.54;1693410;83;21098;-81
2022/10/26 11:27:41;;;;;;;10.32;4.65;;;;;;;17.57;75.57;98494.42;1654458;83;21225;-81
2022/10/26 11:30:19;;;;;;;8.28;4.08;;;;;;;17.54;75.29;98495.05;1701852;82;21077;-82
2022/10/26 11:32:54;;;;;;;5.05;2.12;;;;;;;17.61;77.56;98495.98;1701346;82;20998;-81
2022/10/26 11:35:45;;;;;;;3.33;1.92;;;;;;;17.61;76.50;98493.25;1695234;84;21054;-82
2022/10/26 11:38:54;;;;;;;6.60;2.65;;;;;;;17.64;76.75;98496.16;1699742;83;20990;-81
2022/10/26 11:41:32;;;;;;;13.72;8.63;;;;;;;17.75;78.57;98495.34;1699656;84;21007;-82
2022/10/26 11:44:15;;;;;;;4.75;2.50;;;;;;;17.73;76.75;98496.23;1699023;82;21270;-82
2022/10/26 11:46:54;;;;;;;10.00;8.65;;;;;;;17.68;77.82;98496.32;1647648;85;21423;-81
2022/10/26 11:49:47;;;;;;;7.97;4.08;;;;;;;17.65;77.85;98503.81;1611243;87;21012;-82
2022/10/26 11:52:17;;;;;;;4.22;2.47;;;;;;;17.63;77.10;98501.95;1669342;84;21024;-81
2022/10/26 11:54:55;;;;;;;5.90;2.92;;;;;;;17.56;76.05;98501.02;1681166;84;21055;-82